createdAt,value
2022-11-23T00:00:06.000Z,6.39
2022-11-23T00:05:06.000Z,6.35
2022-11-23T00:10:06.000Z,6.29
2022-11-23T00:15:06.000Z,6.21
2022-11-23T00:20:06.000Z,6.14
2022-11-23T00:25:06.000Z,6.08
2022-11-23T00:30:06.000Z,5.96
2022-11-23T00:35:06.000Z,5.87
2022-11-23T00:40:06.000Z,5.76
2022-11-23T00:45:06.000Z,5.70
2022-11-23T00:50:06.000Z,5.70
2022-11-23T00:55:06.000Z,5.66
2022-11-23T01:00:06.000Z,5.63
2022-11-23T01:05:06.000Z,5.60
2022-11-23T01:10:06.000Z,5.55
2022-11-23T01:15:06.000Z,5.53
2022-11-23T01:20:06.000Z,5.54
2022-11-23T01:25:06.000Z,5.51
2022-11-23T01:30:06.000Z,5.47
2022-11-23T01:35:07.000Z,5.46
2022-11-23T01:40:06.000Z,5.32
2022-11-23T01:45:06.000Z,5.16
2022-11-23T01:50:06.000Z,5.03
2022-11-23T01:55:07.000Z,4.87
2022-11-23T02:00:06.000Z,4.76
2022-11-23T02:05:06.000Z,4.62
2022-11-23T02:10:06.000Z,4.57
2022-11-23T02:15:06.000Z,4.51
2022-11-23T02:20:06.000Z,4.38
2022-11-23T02:25:06.000Z,4.31
2022-11-23T02:30:06.000Z,4.22
2022-11-23T02:35:06.000Z,4.10
2022-11-23T02:40:06.000Z,4.08
2022-11-23T02:45:07.000Z,4.01
2022-11-23T02:50:06.000Z,3.91
2022-11-23T02:55:07.000Z,3.83
2022-11-23T03:00:06.000Z,3.74
2022-11-23T03:05:06.000Z,3.71
2022-11-23T03:10:07.000Z,3.63
2022-11-23T03:15:07.000Z,3.58
2022-11-23T03:20:06.000Z,3.56
2022-11-23T03:25:07.000Z,3.56
2022-11-23T03:30:06.000Z,3.56
2022-11-23T03:35:07.000Z,3.58
2022-11-23T03:40:06.000Z,3.62
2022-11-23T03:45:07.000Z,3.72
2022-11-23T03:50:06.000Z,3.73
2022-11-23T03:55:07.000Z,3.78
2022-11-23T04:00:07.000Z,3.86
2022-11-23T04:05:07.000Z,3.83
2022-11-23T04:10:06.000Z,3.87
2022-11-23T04:15:06.000Z,3.89
2022-11-23T04:20:06.000Z,3.94
2022-11-23T04:25:07.000Z,3.94
2022-11-23T04:30:06.000Z,3.98
2022-11-23T04:35:06.000Z,3.88
2022-11-23T04:39:52.000Z,3.85
2022-11-23T04:45:07.000Z,3.79
2022-11-23T04:50:06.000Z,3.72
2022-11-23T04:55:07.000Z,3.58
2022-11-23T05:00:07.000Z,3.56
2022-11-23T05:05:07.000Z,3.56
2022-11-23T05:10:06.000Z,3.62
2022-11-23T05:15:06.000Z,3.75
2022-11-23T05:20:07.000Z,3.78
2022-11-23T05:25:07.000Z,3.82
2022-11-23T05:30:07.000Z,3.92
2022-11-23T05:35:07.000Z,3.94
2022-11-23T05:40:06.000Z,4.03
2022-11-23T05:45:07.000Z,4.08
2022-11-23T05:50:07.000Z,4.10
2022-11-23T05:55:07.000Z,4.15
2022-11-23T06:00:07.000Z,4.19
2022-11-23T06:04:52.000Z,4.24
2022-11-23T06:10:07.000Z,4.24
2022-11-23T06:15:07.000Z,4.33
2022-11-23T06:20:07.000Z,4.37
2022-11-23T06:25:07.000Z,4.30
2022-11-23T06:30:07.000Z,4.27
2022-11-23T06:34:52.000Z,4.27
2022-11-23T06:40:07.000Z,4.24
2022-11-23T06:45:07.000Z,4.17
2022-11-23T06:50:07.000Z,4.12
2022-11-23T06:55:07.000Z,4.04
2022-11-23T07:00:07.000Z,3.93
2022-11-23T07:05:07.000Z,3.84
2022-11-23T07:10:07.000Z,3.72
2022-11-23T07:15:07.000Z,3.65
2022-11-23T07:20:07.000Z,3.60
2022-11-23T07:25:07.000Z,3.58
2022-11-23T07:30:07.000Z,3.58
2022-11-23T07:35:07.000Z,3.56
2022-11-23T07:40:07.000Z,3.56
2022-11-23T07:45:07.000Z,3.55
2022-11-23T07:50:07.000Z,3.56
2022-11-23T07:55:07.000Z,3.86
2022-11-23T08:00:07.000Z,3.95
2022-11-23T08:05:07.000Z,3.80
2022-11-23T08:10:07.000Z,3.75
2022-11-23T08:15:07.000Z,3.74
2022-11-23T08:20:07.000Z,3.73
2022-11-23T08:25:07.000Z,3.77
2022-11-23T08:29:52.000Z,3.82
2022-11-23T08:35:07.000Z,3.91
2022-11-23T08:40:07.000Z,4.05
2022-11-23T08:45:07.000Z,4.26
2022-11-23T08:50:07.000Z,4.51
2022-11-23T08:55:07.000Z,4.78
2022-11-23T08:59:52.000Z,5.04
2022-11-23T09:05:07.000Z,5.30
2022-11-23T09:10:07.000Z,5.49
2022-11-23T09:15:07.000Z,5.72
2022-11-23T09:20:07.000Z,5.89
2022-11-23T09:25:07.000Z,5.99
2022-11-23T09:29:52.000Z,6.12
2022-11-23T09:35:07.000Z,6.16
2022-11-23T09:40:07.000Z,6.21
2022-11-23T09:45:07.000Z,6.41
2022-11-23T09:50:07.000Z,6.46
2022-11-23T09:54:52.000Z,6.61
2022-11-23T09:59:52.000Z,6.65
2022-11-23T10:05:07.000Z,6.66
2022-11-23T10:10:07.000Z,6.60
2022-11-23T10:15:07.000Z,6.64
2022-11-23T10:20:07.000Z,6.65
2022-11-23T10:24:52.000Z,6.76
2022-11-23T10:29:52.000Z,6.90
2022-11-23T10:35:07.000Z,7.15
2022-11-23T10:40:07.000Z,7.14
2022-11-23T10:45:07.000Z,7.28
2022-11-23T10:50:07.000Z,7.43
2022-11-23T10:54:52.000Z,7.56
2022-11-23T10:59:52.000Z,7.57
2022-11-23T11:05:07.000Z,7.70
2022-11-23T11:10:07.000Z,7.77
2022-11-23T11:15:07.000Z,7.88
2022-11-23T11:20:07.000Z,7.94
2022-11-23T11:24:52.000Z,8.02
2022-11-23T11:30:07.000Z,8.01
2022-11-23T11:35:07.000Z,7.94
2022-11-23T11:40:07.000Z,8.02
2022-11-23T11:45:07.000Z,8.13
2022-11-23T11:50:07.000Z,8.15
2022-11-23T11:54:52.000Z,8.20
2022-11-23T12:00:07.000Z,8.22
2022-11-23T12:05:07.000Z,8.22
2022-11-23T12:10:07.000Z,8.26
2022-11-23T12:15:07.000Z,8.18
2022-11-23T12:20:07.000Z,8.22
2022-11-23T12:25:07.000Z,8.28
2022-11-23T12:30:07.000Z,8.34
2022-11-23T12:35:07.000Z,8.43
2022-11-23T12:40:07.000Z,8.61
2022-11-23T12:45:07.000Z,8.68
2022-11-23T12:50:07.000Z,8.74
2022-11-23T12:55:07.000Z,8.76
2022-11-23T13:00:07.000Z,8.80
2022-11-23T13:05:07.000Z,8.74
2022-11-23T13:10:07.000Z,8.63
2022-11-23T13:15:07.000Z,8.60
2022-11-23T13:19:52.000Z,8.62
2022-11-23T13:25:07.000Z,8.61
2022-11-23T13:29:52.000Z,8.61
2022-11-23T13:35:07.000Z,8.61
2022-11-23T13:40:07.000Z,8.56
2022-11-23T13:45:07.000Z,8.49
2022-11-23T13:49:52.000Z,8.41
2022-11-23T13:54:52.000Z,8.35
2022-11-23T13:59:52.000Z,8.29
2022-11-23T14:05:07.000Z,8.28
2022-11-23T14:10:07.000Z,8.28
2022-11-23T14:14:52.000Z,8.31
2022-11-23T14:19:52.000Z,8.35
2022-11-23T14:25:07.000Z,8.37
2022-11-23T14:30:07.000Z,8.35
2022-11-23T14:35:07.000Z,8.35
2022-11-23T14:40:07.000Z,8.33
2022-11-23T14:44:52.000Z,8.33
2022-11-23T14:50:07.000Z,8.31
2022-11-23T14:55:07.000Z,8.26
2022-11-23T15:00:07.000Z,8.21
2022-11-23T15:05:07.000Z,8.12
2022-11-23T15:10:07.000Z,8.07
2022-11-23T15:14:52.000Z,8.03
2022-11-23T15:20:07.000Z,7.98
2022-11-23T15:25:07.000Z,7.88
2022-11-23T15:30:07.000Z,7.79
2022-11-23T15:35:07.000Z,7.74
2022-11-23T15:40:07.000Z,7.65
2022-11-23T15:44:52.000Z,7.61
2022-11-23T15:49:52.000Z,7.56
2022-11-23T15:54:52.000Z,7.50
2022-11-23T16:00:07.000Z,7.39
2022-11-23T16:05:07.000Z,7.34
2022-11-23T16:10:07.000Z,7.25
2022-11-23T16:14:52.000Z,7.19
2022-11-23T16:19:52.000Z,7.12
2022-11-23T16:25:07.000Z,7.07
2022-11-23T16:30:07.000Z,7.01
2022-11-23T16:35:07.000Z,6.98
2022-11-23T16:40:07.000Z,6.96
2022-11-23T16:44:52.000Z,6.95
2022-11-23T16:49:52.000Z,6.95
2022-11-23T16:55:07.000Z,6.94
2022-11-23T17:00:07.000Z,6.94
2022-11-23T17:05:07.000Z,6.93
2022-11-23T17:10:07.000Z,6.86
2022-11-23T17:14:52.000Z,6.81
2022-11-23T17:20:07.000Z,6.79
2022-11-23T17:25:07.000Z,6.80
2022-11-23T17:30:07.000Z,6.75
2022-11-23T17:35:07.000Z,6.73
2022-11-23T17:40:07.000Z,6.70
2022-11-23T17:45:07.000Z,6.70
2022-11-23T17:50:07.000Z,6.70
2022-11-23T17:55:07.000Z,6.67
2022-11-23T18:00:07.000Z,6.66
2022-11-23T18:05:07.000Z,6.64
2022-11-23T18:10:07.000Z,6.66
2022-11-23T18:14:52.000Z,6.69
2022-11-23T18:19:52.000Z,6.70
2022-11-23T18:25:07.000Z,6.71
2022-11-23T18:30:07.000Z,6.67
2022-11-23T18:35:07.000Z,6.64
2022-11-23T18:39:52.000Z,6.65
2022-11-23T18:44:52.000Z,6.64
2022-11-23T18:49:52.000Z,6.65
2022-11-23T18:55:07.000Z,6.67
2022-11-23T19:00:07.000Z,6.71
2022-11-23T19:05:07.000Z,6.75
2022-11-23T19:09:52.000Z,6.81
2022-11-23T19:14:52.000Z,6.84
2022-11-23T19:19:52.000Z,6.85
2022-11-23T19:25:07.000Z,6.84
2022-11-23T19:30:07.000Z,6.88
2022-11-23T19:35:07.000Z,6.87
2022-11-23T19:39:52.000Z,6.87
2022-11-23T19:45:07.000Z,6.86
2022-11-23T19:49:52.000Z,6.89
2022-11-23T19:55:07.000Z,6.88
2022-11-23T20:00:07.000Z,6.90
2022-11-23T20:05:07.000Z,6.94
2022-11-23T20:09:52.000Z,6.95
2022-11-23T20:14:52.000Z,6.90
2022-11-23T20:19:52.000Z,6.91
2022-11-23T20:25:07.000Z,6.90
2022-11-23T20:30:07.000Z,6.89
2022-11-23T20:34:52.000Z,6.91
2022-11-23T20:39:52.000Z,6.94
2022-11-23T20:44:52.000Z,6.91
2022-11-23T20:49:52.000Z,6.98
2022-11-23T20:55:07.000Z,7.07
2022-11-23T21:00:07.000Z,7.15
2022-11-23T21:04:52.000Z,7.20
2022-11-23T21:09:52.000Z,7.24
2022-11-23T21:14:52.000Z,7.28
2022-11-23T21:19:52.000Z,7.26
2022-11-23T21:25:07.000Z,7.24
2022-11-23T21:30:07.000Z,7.27
2022-11-23T21:34:52.000Z,7.26
2022-11-23T21:39:52.000Z,7.25
2022-11-23T21:44:52.000Z,7.24
2022-11-23T21:50:07.000Z,7.22
2022-11-23T21:54:52.000Z,7.23
2022-11-23T21:59:52.000Z,7.29
2022-11-23T22:04:52.000Z,7.34
2022-11-23T22:09:52.000Z,7.37
2022-11-23T22:15:07.000Z,7.40
2022-11-23T22:20:07.000Z,7.45
2022-11-23T22:25:07.000Z,7.49
2022-11-23T22:29:52.000Z,7.50
2022-11-23T22:34:52.000Z,7.52
2022-11-23T22:40:07.000Z,7.50
2022-11-23T22:44:52.000Z,7.47
2022-11-23T22:49:52.000Z,7.41
2022-11-23T22:55:07.000Z,7.37
2022-11-23T23:00:08.000Z,7.34
2022-11-23T23:04:52.000Z,7.35
2022-11-23T23:10:07.000Z,7.34
2022-11-23T23:15:07.000Z,7.27
2022-11-23T23:20:07.000Z,7.22
2022-11-23T23:25:07.000Z,7.22
2022-11-23T23:30:07.000Z,7.22
2022-11-23T23:35:07.000Z,7.20
2022-11-23T23:39:52.000Z,7.23
2022-11-23T23:44:52.000Z,7.28
2022-11-23T23:50:07.000Z,7.33
2022-11-23T23:55:07.000Z,7.34
2022-11-23T23:59:52.000Z,7.35
